createdAt,value
2023-06-23T08:36:21.421Z,12.30
2023-06-23T08:38:53.682Z,12.48
2023-06-23T08:41:35.624Z,13.52
2023-06-23T10:24:39.768Z,16.10
2023-06-23T10:27:30.214Z,14.90
2023-06-23T10:34:01.802Z,13.80
2023-06-23T10:49:27.799Z,15.13
2023-06-23T10:56:55.987Z,11.98
2023-06-23T11:00:31.843Z,12.27
2023-06-23T11:03:10.133Z,8.95
2023-06-23T11:05:43.975Z,10.20
2023-06-23T11:08:16.132Z,10.27
2023-06-23T11:11:00.917Z,8.85
2023-06-23T11:13:48.809Z,9.93
2023-06-23T11:16:34.634Z,10.48
2023-06-23T11:19:07.207Z,9.60
2023-06-23T11:21:41.961Z,9.77
2023-06-23T11:29:48.187Z,8.75
2023-06-23T11:33:20.958Z,8.02
2023-06-23T11:46:40.137Z,6.57
2023-06-23T11:49:50.723Z,7.72
2023-06-23T11:53:27.408Z,7.80
2023-06-23T11:56:13.091Z,8.30
2023-06-23T11:58:57.572Z,9.35
2023-06-23T12:01:35.648Z,8.52
2023-06-23T12:09:35.704Z,8.50
2023-06-23T12:55:10.258Z,5.72
2023-06-23T12:58:03.978Z,5.30
2023-06-23T13:00:36.319Z,5.30
2023-06-23T13:03:42.799Z,4.85
2023-06-23T13:06:15.748Z,4.78
2023-06-23T13:08:53.964Z,5.35
2023-06-23T13:11:28.245Z,5.00
2023-06-23T13:22:07.754Z,3.35
2023-06-23T13:24:41.959Z,3.40
2023-06-23T13:31:07.823Z,3.50
2023-06-23T13:34:19.968Z,3.33
2023-06-23T13:36:52.470Z,4.13
2023-06-23T13:39:57.917Z,3.65
2023-06-23T13:42:31.278Z,3.70
2023-06-23T13:45:05.245Z,3.45
2023-06-23T13:47:40.770Z,3.58
2023-06-23T13:53:19.048Z,2.15
2023-06-23T13:55:53.793Z,3.00
2023-06-23T14:11:25.977Z,2.28
2023-06-23T14:14:01.393Z,2.15
2023-06-23T14:17:22.166Z,2.10
2023-06-23T14:23:48.026Z,2.70
2023-06-23T14:45:23.462Z,2.92
2023-06-23T14:54:37.499Z,3.83
2023-06-23T14:57:10.234Z,3.50
2023-06-23T14:59:42.391Z,3.30
2023-06-23T15:02:14.684Z,3.83
2023-06-23T15:04:47.311Z,4.05
2023-06-23T15:11:15.090Z,3.63
2023-06-23T15:13:47.328Z,2.92
2023-06-23T15:16:19.428Z,3.58
2023-06-23T15:20:13.511Z,3.33
2023-06-23T15:22:45.765Z,3.42
2023-06-23T15:25:18.049Z,4.65
2023-06-23T15:27:50.467Z,3.30
2023-06-23T15:30:22.815Z,3.20
2023-06-23T15:32:55.842Z,3.58
2023-06-23T15:35:28.356Z,3.35
2023-06-23T15:38:00.688Z,4.10
2023-06-23T15:40:33.002Z,3.53
2023-06-23T15:43:05.272Z,4.03
2023-06-23T15:45:44.260Z,4.20
2023-06-23T15:48:16.638Z,4.20
2023-06-23T15:50:49.020Z,4.00
2023-06-23T15:53:22.130Z,3.67
2023-06-23T15:56:15.691Z,3.28
2023-06-23T15:59:44.923Z,3.40
2023-06-23T16:02:18.113Z,2.90
2023-06-23T16:08:51.645Z,2.60
2023-06-23T16:11:25.397Z,2.88
2023-06-23T16:13:57.633Z,3.10
2023-06-23T16:16:31.368Z,3.25
2023-06-23T16:19:03.920Z,3.45
2023-06-23T16:21:37.442Z,2.70
2023-06-23T16:24:12.773Z,3.15
2023-06-23T16:26:46.532Z,3.30
2023-06-23T16:29:21.711Z,3.72
2023-06-23T16:33:38.027Z,3.92
2023-06-23T16:36:25.233Z,4.60
2023-06-23T16:39:11.019Z,4.57
2023-06-23T16:44:52.237Z,5.53
2023-06-23T16:47:24.614Z,5.72
2023-06-23T16:49:57.544Z,5.50
2023-06-23T16:52:29.869Z,4.68
2023-06-23T16:55:03.100Z,4.22
2023-06-23T16:57:38.584Z,6.07
2023-06-23T17:01:09.070Z,5.85
2023-06-23T17:07:36.588Z,6.22
2023-06-23T17:10:41.498Z,6.55
2023-06-23T17:13:17.196Z,6.18
2023-06-23T17:15:49.344Z,6.22
2023-06-23T17:18:25.939Z,5.85
2023-06-23T17:20:58.251Z,6.60
2023-06-23T17:23:30.474Z,6.03
2023-06-23T17:26:15.441Z,6.63
2023-06-23T17:30:10.073Z,6.28
2023-06-23T17:32:43.234Z,7.05
2023-06-23T17:35:15.829Z,6.75
2023-06-23T17:37:48.263Z,6.97
2023-06-23T17:40:26.992Z,7.97
2023-06-23T17:46:22.743Z,8.30
2023-06-23T17:48:55.675Z,7.68
2023-06-23T17:52:08.565Z,8.00
2023-06-23T17:55:03.223Z,8.30
2023-06-23T17:57:35.467Z,7.65
2023-06-23T18:03:51.915Z,7.80
2023-06-23T18:06:24.515Z,7.25
2023-06-23T18:08:57.029Z,9.20
2023-06-23T18:11:29.970Z,7.70
2023-06-23T18:14:08.090Z,7.32
2023-06-23T18:16:46.790Z,7.32
2023-06-23T18:23:23.386Z,6.10
2023-06-23T18:30:24.747Z,5.78
2023-06-23T18:33:13.356Z,5.72
2023-06-23T18:35:46.041Z,5.53
2023-06-23T18:38:40.249Z,5.45
2023-06-23T18:41:12.590Z,6.15
2023-06-23T18:43:45.032Z,5.32
2023-06-23T18:50:11.188Z,4.85
2023-06-23T18:52:43.535Z,5.25
2023-06-23T18:55:15.888Z,4.97
2023-06-23T18:57:48.289Z,4.90
2023-06-23T19:00:20.690Z,6.30
2023-06-23T19:02:56.707Z,5.45
2023-06-23T19:06:14.095Z,7.00
2023-06-23T19:08:47.122Z,5.15
2023-06-23T19:12:12.299Z,6.15
2023-06-23T19:14:44.537Z,5.72
2023-06-23T19:17:18.058Z,6.53
2023-06-23T19:19:50.358Z,6.18
2023-06-23T19:22:25.873Z,6.88
2023-06-23T19:26:10.587Z,5.78
2023-06-23T19:28:43.736Z,5.97
2023-06-23T19:31:16.531Z,6.55
2023-06-23T19:33:48.740Z,6.38
2023-06-23T19:36:21.181Z,5.95
2023-06-23T19:39:15.359Z,6.07
2023-06-23T19:42:11.773Z,6.22
2023-06-23T19:44:44.028Z,6.35
2023-06-23T19:48:11.782Z,6.50
2023-06-23T19:50:46.957Z,6.20
2023-06-23T19:53:23.477Z,6.47
2023-06-23T19:55:55.819Z,6.95
2023-06-23T19:58:31.173Z,7.03
2023-06-23T20:01:03.646Z,6.68
2023-06-23T20:03:36.474Z,7.13
2023-06-23T20:06:08.913Z,6.57
2023-06-23T20:08:41.601Z,7.05
2023-06-23T20:11:15.197Z,7.13
2023-06-23T20:13:47.555Z,6.57
2023-06-23T20:16:20.188Z,7.18
2023-06-23T20:18:52.636Z,6.03
2023-06-23T20:22:07.589Z,6.40
2023-06-23T20:24:40.104Z,7.43
2023-06-23T20:27:12.739Z,6.43
2023-06-23T20:29:45.236Z,7.85
2023-06-23T20:32:17.614Z,7.63
2023-06-23T20:35:09.608Z,10.75
2023-06-23T20:37:42.189Z,6.88
2023-06-23T20:40:15.721Z,6.35
2023-06-23T20:42:48.028Z,7.70
2023-06-23T20:45:22.814Z,6.75
2023-06-23T20:48:17.206Z,6.38
2023-06-23T20:50:53.223Z,6.70
2023-06-23T20:53:25.560Z,7.50
2023-06-23T20:55:58.005Z,6.72
2023-06-23T20:58:30.213Z,6.97
2023-06-23T21:01:18.074Z,7.53
2023-06-23T21:03:50.621Z,7.63
2023-06-23T21:06:23.969Z,7.53
2023-06-23T21:08:56.438Z,7.38
2023-06-23T21:11:31.707Z,7.43
2023-06-23T21:14:04.298Z,7.15
2023-06-23T21:16:39.770Z,7.60
2023-06-23T21:19:12.073Z,8.32
2023-06-23T21:21:45.245Z,7.15
2023-06-23T21:24:18.070Z,7.90
2023-06-23T21:27:16.655Z,7.90
2023-06-23T21:29:49.118Z,7.57
2023-06-23T21:32:24.909Z,8.02
2023-06-23T21:34:57.256Z,7.88
2023-06-23T21:37:33.355Z,8.40
2023-06-23T21:40:17.821Z,7.97
2023-06-23T21:42:50.315Z,8.10
2023-06-23T21:45:25.109Z,7.32
2023-06-23T21:48:22.325Z,7.75
2023-06-23T21:50:54.786Z,8.40
2023-06-23T21:53:30.360Z,8.35
2023-06-23T21:56:05.368Z,8.15
2023-06-23T21:58:40.948Z,9.18
2023-06-23T22:01:13.589Z,7.43
2023-06-23T22:03:54.560Z,7.78
2023-06-23T22:06:29.831Z,7.70
2023-06-23T22:09:35.902Z,8.35
2023-06-23T22:13:00.218Z,9.02
2023-06-23T22:15:48.681Z,7.60
2023-06-23T22:21:45.726Z,7.38
2023-06-23T22:24:54.169Z,8.38
2023-06-23T22:28:27.251Z,8.63
2023-06-23T22:34:26.985Z,8.57
2023-06-23T22:37:20.049Z,8.75
2023-06-23T22:39:57.945Z,8.73
2023-06-23T22:42:41.258Z,8.73
2023-06-23T22:45:13.742Z,9.35
2023-06-23T22:47:53.802Z,8.75
2023-06-23T22:50:30.577Z,10.10
2023-06-23T22:53:44.151Z,9.52
2023-06-23T22:57:09.690Z,8.32
2023-06-23T22:59:43.689Z,10.20
2023-06-23T23:02:20.095Z,9.68
2023-06-23T23:04:55.724Z,9.15
2023-06-23T23:07:42.928Z,8.88
2023-06-23T23:10:25.925Z,9.50
2023-06-23T23:12:58.606Z,10.30
2023-06-23T23:15:44.113Z,9.88
2023-06-23T23:21:35.695Z,9.20
2023-06-23T23:24:22.606Z,9.13
2023-06-23T23:30:55.247Z,9.48
2023-06-23T23:40:35.523Z,9.70
2023-06-23T23:43:18.876Z,9.75
2023-06-23T23:46:25.022Z,9.73
2023-06-23T23:49:06.096Z,9.63
2023-06-23T23:55:32.595Z,10.10
2023-06-23T23:58:14.993Z,10.00
